sensor_id;sensor_type;location;lat;lon;timestamp;P1;durP1;ratioP1;P2;durP2;ratioP2
68858;SDS011;55864;49.238;8.092;2023-09-07T00:01:16;8.35;;;3.10;;
68858;SDS011;55864;49.238;8.092;2023-09-07T00:03:19;6.18;;;3.05;;
68858;SDS011;55864;49.238;8.092;2023-09-07T00:05:19;7.25;;;3.05;;
68858;SDS011;55864;49.238;8.092;2023-09-07T00:07:20;8.48;;;3.30;;
68858;SDS011;55864;49.238;8.092;2023-09-07T00:09:21;7.68;;;3.53;;
68858;SDS011;55864;49.238;8.092;2023-09-07T00:11:21;6.82;;;3.17;;
68858;SDS011;55864;49.238;8.092;2023-09-07T00:13:22;9.55;;;3.30;;
68858;SDS011;55864;49.238;8.092;2023-09-07T00:15:22;7.43;;;3.33;;
68858;SDS011;55864;49.238;8.092;2023-09-07T00:17:23;8.13;;;3.38;;
68858;SDS011;55864;49.238;8.092;2023-09-07T00:19:25;6.57;;;3.13;;
68858;SDS011;55864;49.238;8.092;2023-09-07T00:21:26;6.28;;;3.20;;
68858;SDS011;55864;49.238;8.092;2023-09-07T00:23:26;6.45;;;3.00;;
68858;SDS011;55864;49.238;8.092;2023-09-07T00:25:27;6.80;;;3.22;;
68858;SDS011;55864;49.238;8.092;2023-09-07T00:27:27;7.43;;;2.90;;
68858;SDS011;55864;49.238;8.092;2023-09-07T00:29:28;7.95;;;3.40;;
68858;SDS011;55864;49.238;8.092;2023-09-07T00:31:28;7.05;;;3.10;;
68858;SDS011;55864;49.238;8.092;2023-09-07T00:33:29;7.07;;;3.05;;
68858;SDS011;55864;49.238;8.092;2023-09-07T00:35:31;6.53;;;3.30;;
68858;SDS011;55864;49.238;8.092;2023-09-07T00:37:32;6.70;;;3.42;;
68858;SDS011;55864;49.238;8.092;2023-09-07T00:39:32;6.32;;;3.10;;
68858;SDS011;55864;49.238;8.092;2023-09-07T00:41:33;6.30;;;3.00;;
68858;SDS011;55864;49.238;8.092;2023-09-07T00:43:33;7.47;;;3.28;;
68858;SDS011;55864;49.238;8.092;2023-09-07T00:45:34;6.43;;;3.50;;
68858;SDS011;55864;49.238;8.092;2023-09-07T00:47:35;6.13;;;3.13;;
68858;SDS011;55864;49.238;8.092;2023-09-07T00:49:35;8.32;;;3.38;;
68858;SDS011;55864;49.238;8.092;2023-09-07T00:51:38;6.45;;;3.25;;
68858;SDS011;55864;49.238;8.092;2023-09-07T00:53:38;8.68;;;3.50;;
68858;SDS011;55864;49.238;8.092;2023-09-07T00:55:40;6.85;;;3.15;;
68858;SDS011;55864;49.238;8.092;2023-09-07T00:57:41;6.22;;;3.08;;
68858;SDS011;55864;49.238;8.092;2023-09-07T00:59:41;5.93;;;2.95;;
68858;SDS011;55864;49.238;8.092;2023-09-07T01:04:09;6.13;;;3.20;;
68858;SDS011;55864;49.238;8.092;2023-09-07T01:06:12;7.20;;;3.20;;
68858;SDS011;55864;49.238;8.092;2023-09-07T01:08:17;6.95;;;3.35;;
68858;SDS011;55864;49.238;8.092;2023-09-07T01:10:23;8.98;;;3.60;;
68858;SDS011;55864;49.238;8.092;2023-09-07T01:12:24;7.50;;;3.10;;
68858;SDS011;55864;49.238;8.092;2023-09-07T01:14:26;6.68;;;3.50;;
68858;SDS011;55864;49.238;8.092;2023-09-07T01:16:31;7.05;;;3.22;;
68858;SDS011;55864;49.238;8.092;2023-09-07T01:18:37;8.38;;;3.20;;
68858;SDS011;55864;49.238;8.092;2023-09-07T01:20:41;8.57;;;3.65;;
68858;SDS011;55864;49.238;8.092;2023-09-07T01:22:43;6.45;;;3.33;;
68858;SDS011;55864;49.238;8.092;2023-09-07T01:24:45;8.75;;;3.33;;
68858;SDS011;55864;49.238;8.092;2023-09-07T01:26:47;7.60;;;3.20;;
68858;SDS011;55864;49.238;8.092;2023-09-07T01:28:48;7.90;;;3.63;;
68858;SDS011;55864;49.238;8.092;2023-09-07T01:30:49;7.70;;;3.20;;
68858;SDS011;55864;49.238;8.092;2023-09-07T01:32:51;7.97;;;3.33;;
68858;SDS011;55864;49.238;8.092;2023-09-07T01:34:52;7.50;;;3.30;;
68858;SDS011;55864;49.238;8.092;2023-09-07T01:36:55;6.90;;;3.35;;
68858;SDS011;55864;49.238;8.092;2023-09-07T01:38:57;6.53;;;3.17;;
68858;SDS011;55864;49.238;8.092;2023-09-07T01:40:57;8.68;;;3.70;;
68858;SDS011;55864;49.238;8.092;2023-09-07T01:42:58;6.90;;;3.30;;
68858;SDS011;55864;49.238;8.092;2023-09-07T01:44:58;7.93;;;3.13;;
68858;SDS011;55864;49.238;8.092;2023-09-07T01:46:59;6.55;;;3.20;;
68858;SDS011;55864;49.238;8.092;2023-09-07T01:49:00;7.43;;;3.42;;
68858;SDS011;55864;49.238;8.092;2023-09-07T01:51:01;8.85;;;3.53;;
68858;SDS011;55864;49.238;8.092;2023-09-07T01:53:02;7.28;;;3.00;;
68858;SDS011;55864;49.238;8.092;2023-09-07T01:55:04;6.35;;;3.30;;
68858;SDS011;55864;49.238;8.092;2023-09-07T01:57:05;7.28;;;3.55;;
68858;SDS011;55864;49.238;8.092;2023-09-07T01:59:06;7.10;;;3.50;;
68858;SDS011;55864;49.238;8.092;2023-09-07T02:01:06;7.05;;;3.63;;
68858;SDS011;55864;49.238;8.092;2023-09-07T02:03:07;7.65;;;3.60;;
68858;SDS011;55864;49.238;8.092;2023-09-07T02:05:07;6.35;;;3.22;;
68858;SDS011;55864;49.238;8.092;2023-09-07T02:07:08;6.88;;;3.45;;
68858;SDS011;55864;49.238;8.092;2023-09-07T02:09:09;6.95;;;3.40;;
68858;SDS011;55864;49.238;8.092;2023-09-07T02:11:12;8.55;;;3.20;;
68858;SDS011;55864;49.238;8.092;2023-09-07T02:13:12;8.10;;;3.72;;
68858;SDS011;55864;49.238;8.092;2023-09-07T02:15:13;6.75;;;3.58;;
68858;SDS011;55864;49.238;8.092;2023-09-07T02:17:15;7.82;;;3.53;;
68858;SDS011;55864;49.238;8.092;2023-09-07T02:19:15;8.27;;;3.72;;
68858;SDS011;55864;49.238;8.092;2023-09-07T02:21:17;7.05;;;3.60;;
68858;SDS011;55864;49.238;8.092;2023-09-07T02:23:17;8.23;;;3.70;;
68858;SDS011;55864;49.238;8.092;2023-09-07T02:25:18;7.60;;;3.45;;
68858;SDS011;55864;49.238;8.092;2023-09-07T02:27:20;6.93;;;3.35;;
68858;SDS011;55864;49.238;8.092;2023-09-07T02:29:20;6.55;;;3.40;;
68858;SDS011;55864;49.238;8.092;2023-09-07T02:31:21;7.00;;;3.40;;
68858;SDS011;55864;49.238;8.092;2023-09-07T02:33:22;6.68;;;3.50;;
68858;SDS011;55864;49.238;8.092;2023-09-07T02:35:22;8.57;;;3.58;;
68858;SDS011;55864;49.238;8.092;2023-09-07T02:37:23;6.68;;;3.60;;
68858;SDS011;55864;49.238;8.092;2023-09-07T02:39:24;7.25;;;3.17;;
68858;SDS011;55864;49.238;8.092;2023-09-07T02:41:24;6.85;;;3.60;;
68858;SDS011;55864;49.238;8.092;2023-09-07T02:43:26;9.05;;;3.40;;
68858;SDS011;55864;49.238;8.092;2023-09-07T02:45:27;6.32;;;3.30;;
68858;SDS011;55864;49.238;8.092;2023-09-07T02:47:27;7.60;;;3.88;;
68858;SDS011;55864;49.238;8.092;2023-09-07T02:49:28;7.47;;;3.63;;
68858;SDS011;55864;49.238;8.092;2023-09-07T02:51:29;8.80;;;3.65;;
68858;SDS011;55864;49.238;8.092;2023-09-07T02:53:31;6.75;;;3.20;;
68858;SDS011;55864;49.238;8.092;2023-09-07T02:55:31;7.43;;;3.78;;
68858;SDS011;55864;49.238;8.092;2023-09-07T02:57:32;7.95;;;3.63;;
68858;SDS011;55864;49.238;8.092;2023-09-07T02:59:34;7.95;;;3.70;;
68858;SDS011;55864;49.238;8.092;2023-09-07T03:01:34;6.30;;;3.53;;
68858;SDS011;55864;49.238;8.092;2023-09-07T03:03:35;6.85;;;3.58;;
68858;SDS011;55864;49.238;8.092;2023-09-07T03:05:36;6.80;;;3.15;;
68858;SDS011;55864;49.238;8.092;2023-09-07T03:07:37;7.05;;;3.17;;
68858;SDS011;55864;49.238;8.092;2023-09-07T03:09:37;6.93;;;3.35;;
68858;SDS011;55864;49.238;8.092;2023-09-07T03:11:38;8.15;;;3.25;;
68858;SDS011;55864;49.238;8.092;2023-09-07T03:13:39;7.13;;;3.50;;
68858;SDS011;55864;49.238;8.092;2023-09-07T03:15:41;7.20;;;3.38;;
68858;SDS011;55864;49.238;8.092;2023-09-07T03:17:45;6.57;;;3.25;;
68858;SDS011;55864;49.238;8.092;2023-09-07T03:19:47;6.85;;;3.60;;
68858;SDS011;55864;49.238;8.092;2023-09-07T03:21:48;7.35;;;3.22;;
68858;SDS011;55864;49.238;8.092;2023-09-07T03:23:49;6.45;;;3.38;;
68858;SDS011;55864;49.238;8.092;2023-09-07T03:25:49;6.07;;;3.53;;
68858;SDS011;55864;49.238;8.092;2023-09-07T03:27:51;7.38;;;3.42;;
68858;SDS011;55864;49.238;8.092;2023-09-07T03:29:51;7.60;;;3.70;;
68858;SDS011;55864;49.238;8.092;2023-09-07T03:31:55;7.45;;;3.80;;
68858;SDS011;55864;49.238;8.092;2023-09-07T03:33:56;7.93;;;3.58;;
68858;SDS011;55864;49.238;8.092;2023-09-07T03:35:56;6.68;;;3.38;;
68858;SDS011;55864;49.238;8.092;2023-09-07T03:37:57;7.55;;;3.30;;
68858;SDS011;55864;49.238;8.092;2023-09-07T03:39:57;8.20;;;3.65;;
68858;SDS011;55864;49.238;8.092;2023-09-07T03:41:58;7.10;;;3.67;;
68858;SDS011;55864;49.238;8.092;2023-09-07T03:43:59;7.40;;;3.25;;
68858;SDS011;55864;49.238;8.092;2023-09-07T03:45:59;10.27;;;3.45;;
68858;SDS011;55864;49.238;8.092;2023-09-07T03:48:02;6.68;;;3.45;;
68858;SDS011;55864;49.238;8.092;2023-09-07T03:50:04;6.68;;;3.40;;
68858;SDS011;55864;49.238;8.092;2023-09-07T03:52:06;7.75;;;3.22;;
68858;SDS011;55864;49.238;8.092;2023-09-07T03:54:07;8.15;;;3.55;;
68858;SDS011;55864;49.238;8.092;2023-09-07T03:56:07;7.05;;;3.50;;
68858;SDS011;55864;49.238;8.092;2023-09-07T03:58:08;10.10;;;3.70;;
68858;SDS011;55864;49.238;8.092;2023-09-07T04:00:09;8.18;;;3.55;;
68858;SDS011;55864;49.238;8.092;2023-09-07T04:02:14;8.23;;;3.45;;
68858;SDS011;55864;49.238;8.092;2023-09-07T04:04:16;7.25;;;3.75;;
68858;SDS011;55864;49.238;8.092;2023-09-07T04:06:16;7.07;;;3.58;;
68858;SDS011;55864;49.238;8.092;2023-09-07T04:08:17;8.73;;;3.88;;
68858;SDS011;55864;49.238;8.092;2023-09-07T04:10:18;6.15;;;3.30;;
68858;SDS011;55864;49.238;8.092;2023-09-07T04:12:19;7.10;;;3.67;;
68858;SDS011;55864;49.238;8.092;2023-09-07T04:14:20;6.80;;;3.53;;
68858;SDS011;55864;49.238;8.092;2023-09-07T04:16:20;7.65;;;3.80;;
68858;SDS011;55864;49.238;8.092;2023-09-07T04:18:21;7.18;;;3.58;;
68858;SDS011;55864;49.238;8.092;2023-09-07T04:20:23;7.63;;;3.78;;
68858;SDS011;55864;49.238;8.092;2023-09-07T04:22:25;7.10;;;3.40;;
68858;SDS011;55864;49.238;8.092;2023-09-07T04:24:25;7.60;;;3.58;;
68858;SDS011;55864;49.238;8.092;2023-09-07T04:26:26;7.00;;;3.50;;
68858;SDS011;55864;49.238;8.092;2023-09-07T04:28:26;7.78;;;3.65;;
68858;SDS011;55864;49.238;8.092;2023-09-07T04:30:27;7.55;;;3.55;;
68858;SDS011;55864;49.238;8.092;2023-09-07T04:32:27;7.68;;;3.55;;
68858;SDS011;55864;49.238;8.092;2023-09-07T04:34:28;7.72;;;3.45;;
68858;SDS011;55864;49.238;8.092;2023-09-07T04:36:30;7.30;;;3.55;;
68858;SDS011;55864;49.238;8.092;2023-09-07T04:38:31;7.03;;;3.55;;
68858;SDS011;55864;49.238;8.092;2023-09-07T04:40:32;7.75;;;3.55;;
68858;SDS011;55864;49.238;8.092;2023-09-07T04:42:32;7.50;;;3.70;;
68858;SDS011;55864;49.238;8.092;2023-09-07T04:44:33;8.73;;;3.80;;
68858;SDS011;55864;49.238;8.092;2023-09-07T04:46:33;7.57;;;3.42;;
68858;SDS011;55864;49.238;8.092;2023-09-07T04:48:34;7.75;;;3.53;;
68858;SDS011;55864;49.238;8.092;2023-09-07T04:50:35;6.80;;;3.63;;
68858;SDS011;55864;49.238;8.092;2023-09-07T04:52:37;7.43;;;4.00;;
68858;SDS011;55864;49.238;8.092;2023-09-07T04:54:38;9.63;;;3.90;;
68858;SDS011;55864;49.238;8.092;2023-09-07T04:56:38;9.18;;;3.72;;
68858;SDS011;55864;49.238;8.092;2023-09-07T04:58:39;7.75;;;3.40;;
68858;SDS011;55864;49.238;8.092;2023-09-07T05:00:40;6.95;;;3.65;;
68858;SDS011;55864;49.238;8.092;2023-09-07T05:02:40;7.45;;;3.70;;
68858;SDS011;55864;49.238;8.092;2023-09-07T05:04:41;7.05;;;3.33;;
68858;SDS011;55864;49.238;8.092;2023-09-07T05:06:42;6.57;;;3.63;;
68858;SDS011;55864;49.238;8.092;2023-09-07T05:08:44;7.55;;;3.65;;
68858;SDS011;55864;49.238;8.092;2023-09-07T05:10:45;9.38;;;3.50;;
68858;SDS011;55864;49.238;8.092;2023-09-07T05:12:46;10.13;;;3.50;;
68858;SDS011;55864;49.238;8.092;2023-09-07T05:14:46;8.93;;;3.63;;
68858;SDS011;55864;49.238;8.092;2023-09-07T05:16:47;8.93;;;4.07;;
68858;SDS011;55864;49.238;8.092;2023-09-07T05:18:48;7.72;;;3.42;;
68858;SDS011;55864;49.238;8.092;2023-09-07T05:20:48;7.43;;;3.72;;
68858;SDS011;55864;49.238;8.092;2023-09-07T05:22:49;8.20;;;4.00;;
68858;SDS011;55864;49.238;8.092;2023-09-07T05:24:51;7.60;;;3.75;;
68858;SDS011;55864;49.238;8.092;2023-09-07T05:26:52;6.78;;;3.83;;
68858;SDS011;55864;49.238;8.092;2023-09-07T05:28:53;7.93;;;3.38;;
68858;SDS011;55864;49.238;8.092;2023-09-07T05:30:53;7.15;;;3.65;;
68858;SDS011;55864;49.238;8.092;2023-09-07T05:32:56;7.20;;;3.97;;
68858;SDS011;55864;49.238;8.092;2023-09-07T05:34:57;7.05;;;3.60;;
68858;SDS011;55864;49.238;8.092;2023-09-07T05:36:57;6.93;;;3.58;;
68858;SDS011;55864;49.238;8.092;2023-09-07T05:38:58;7.07;;;3.88;;
68858;SDS011;55864;49.238;8.092;2023-09-07T05:41:00;7.90;;;3.58;;
68858;SDS011;55864;49.238;8.092;2023-09-07T05:43:00;10.57;;;4.05;;
68858;SDS011;55864;49.238;8.092;2023-09-07T05:45:01;7.50;;;4.15;;
68858;SDS011;55864;49.238;8.092;2023-09-07T05:47:02;7.57;;;3.78;;
68858;SDS011;55864;49.238;8.092;2023-09-07T05:49:03;8.30;;;3.83;;
68858;SDS011;55864;49.238;8.092;2023-09-07T05:51:04;6.80;;;3.60;;
68858;SDS011;55864;49.238;8.092;2023-09-07T05:53:04;8.02;;;3.92;;
68858;SDS011;55864;49.238;8.092;2023-09-07T05:55:06;7.22;;;3.90;;
68858;SDS011;55864;49.238;8.092;2023-09-07T05:57:08;6.82;;;3.70;;
68858;SDS011;55864;49.238;8.092;2023-09-07T05:59:09;8.30;;;3.88;;
68858;SDS011;55864;49.238;8.092;2023-09-07T06:01:10;9.55;;;3.80;;
68858;SDS011;55864;49.238;8.092;2023-09-07T06:03:10;8.30;;;3.70;;
68858;SDS011;55864;49.238;8.092;2023-09-07T06:05:12;8.90;;;3.50;;
68858;SDS011;55864;49.238;8.092;2023-09-07T06:07:13;10.50;;;3.70;;
68858;SDS011;55864;49.238;8.092;2023-09-07T06:09:14;7.45;;;3.92;;
68858;SDS011;55864;49.238;8.092;2023-09-07T06:11:14;6.85;;;3.53;;
68858;SDS011;55864;49.238;8.092;2023-09-07T06:13:16;6.45;;;3.72;;
68858;SDS011;55864;49.238;8.092;2023-09-07T06:15:17;8.35;;;4.03;;
68858;SDS011;55864;49.238;8.092;2023-09-07T06:17:18;10.18;;;4.10;;
68858;SDS011;55864;49.238;8.092;2023-09-07T06:19:25;8.80;;;3.90;;
68858;SDS011;55864;49.238;8.092;2023-09-07T06:21:39;8.35;;;4.00;;
68858;SDS011;55864;49.238;8.092;2023-09-07T06:23:40;11.32;;;4.30;;
68858;SDS011;55864;49.238;8.092;2023-09-07T06:25:41;7.82;;;3.90;;
68858;SDS011;55864;49.238;8.092;2023-09-07T06:27:41;8.30;;;3.83;;
68858;SDS011;55864;49.238;8.092;2023-09-07T06:29:43;7.32;;;3.63;;
68858;SDS011;55864;49.238;8.092;2023-09-07T06:31:44;7.95;;;3.72;;
68858;SDS011;55864;49.238;8.092;2023-09-07T06:33:45;7.18;;;3.70;;
68858;SDS011;55864;49.238;8.092;2023-09-07T06:35:45;7.00;;;3.90;;
68858;SDS011;55864;49.238;8.092;2023-09-07T06:37:46;8.70;;;4.10;;
68858;SDS011;55864;49.238;8.092;2023-09-07T06:39:49;9.10;;;3.53;;
68858;SDS011;55864;49.238;8.092;2023-09-07T06:41:50;8.05;;;3.83;;
68858;SDS011;55864;49.238;8.092;2023-09-07T06:43:53;7.47;;;4.05;;
68858;SDS011;55864;49.238;8.092;2023-09-07T06:45:55;7.15;;;3.70;;
68858;SDS011;55864;49.238;8.092;2023-09-07T06:47:55;8.13;;;3.45;;
68858;SDS011;55864;49.238;8.092;2023-09-07T06:49:58;8.77;;;3.85;;
68858;SDS011;55864;49.238;8.092;2023-09-07T06:51:59;7.40;;;3.63;;
68858;SDS011;55864;49.238;8.092;2023-09-07T06:53:59;9.35;;;3.67;;
68858;SDS011;55864;49.238;8.092;2023-09-07T06:56:01;7.03;;;3.50;;
68858;SDS011;55864;49.238;8.092;2023-09-07T06:58:04;7.47;;;3.63;;
68858;SDS011;55864;49.238;8.092;2023-09-07T07:00:05;6.65;;;3.70;;
68858;SDS011;55864;49.238;8.092;2023-09-07T07:02:08;8.70;;;3.90;;
68858;SDS011;55864;49.238;8.092;2023-09-07T07:04:09;8.90;;;3.90;;
68858;SDS011;55864;49.238;8.092;2023-09-07T07:06:09;10.82;;;3.90;;
68858;SDS011;55864;49.238;8.092;2023-09-07T07:08:10;7.68;;;4.15;;
68858;SDS011;55864;49.238;8.092;2023-09-07T07:10:11;8.25;;;4.00;;
68858;SDS011;55864;49.238;8.092;2023-09-07T07:12:11;8.68;;;3.97;;
68858;SDS011;55864;49.238;8.092;2023-09-07T07:14:12;8.27;;;3.97;;
68858;SDS011;55864;49.238;8.092;2023-09-07T07:16:13;8.18;;;3.67;;
68858;SDS011;55864;49.238;8.092;2023-09-07T07:18:16;8.45;;;4.10;;
68858;SDS011;55864;49.238;8.092;2023-09-07T07:20:16;8.50;;;4.03;;
68858;SDS011;55864;49.238;8.092;2023-09-07T07:22:17;10.93;;;4.13;;
68858;SDS011;55864;49.238;8.092;2023-09-07T07:24:18;10.00;;;4.30;;
68858;SDS011;55864;49.238;8.092;2023-09-07T07:26:19;7.15;;;3.90;;
68858;SDS011;55864;49.238;8.092;2023-09-07T07:28:19;9.93;;;4.38;;
68858;SDS011;55864;49.238;8.092;2023-09-07T07:30:20;8.43;;;3.95;;
68858;SDS011;55864;49.238;8.092;2023-09-07T07:32:20;9.07;;;4.20;;
68858;SDS011;55864;49.238;8.092;2023-09-07T07:34:23;7.03;;;3.97;;
68858;SDS011;55864;49.238;8.092;2023-09-07T07:36:24;8.13;;;4.10;;
68858;SDS011;55864;49.238;8.092;2023-09-07T07:38:25;8.02;;;4.00;;
68858;SDS011;55864;49.238;8.092;2023-09-07T07:40:25;7.97;;;4.20;;
68858;SDS011;55864;49.238;8.092;2023-09-07T07:42:26;7.00;;;3.88;;
68858;SDS011;55864;49.238;8.092;2023-09-07T07:44:27;9.57;;;4.10;;
68858;SDS011;55864;49.238;8.092;2023-09-07T07:46:28;7.55;;;3.97;;
68858;SDS011;55864;49.238;8.092;2023-09-07T07:48:28;7.28;;;4.22;;
68858;SDS011;55864;49.238;8.092;2023-09-07T07:50:30;8.05;;;3.90;;
68858;SDS011;55864;49.238;8.092;2023-09-07T07:52:31;10.40;;;4.63;;
68858;SDS011;55864;49.238;8.092;2023-09-07T07:54:33;7.47;;;4.18;;
68858;SDS011;55864;49.238;8.092;2023-09-07T07:56:35;7.70;;;4.60;;
68858;SDS011;55864;49.238;8.092;2023-09-07T07:58:36;12.23;;;4.30;;
68858;SDS011;55864;49.238;8.092;2023-09-07T08:00:37;8.07;;;4.47;;
68858;SDS011;55864;49.238;8.092;2023-09-07T08:02:38;9.52;;;4.82;;
68858;SDS011;55864;49.238;8.092;2023-09-07T08:04:39;6.93;;;4.03;;
68858;SDS011;55864;49.238;8.092;2023-09-07T08:06:41;7.45;;;4.00;;
68858;SDS011;55864;49.238;8.092;2023-09-07T08:08:42;8.98;;;4.30;;
68858;SDS011;55864;49.238;8.092;2023-09-07T08:10:44;8.07;;;3.78;;
68858;SDS011;55864;49.238;8.092;2023-09-07T08:12:45;7.82;;;3.97;;
68858;SDS011;55864;49.238;8.092;2023-09-07T08:14:45;7.78;;;3.88;;
68858;SDS011;55864;49.238;8.092;2023-09-07T08:16:46;8.45;;;4.38;;
68858;SDS011;55864;49.238;8.092;2023-09-07T08:18:46;9.13;;;4.25;;
68858;SDS011;55864;49.238;8.092;2023-09-07T08:20:49;8.57;;;4.30;;
68858;SDS011;55864;49.238;8.092;2023-09-07T08:22:51;6.90;;;3.92;;
68858;SDS011;55864;49.238;8.092;2023-09-07T08:24:51;8.68;;;4.72;;
68858;SDS011;55864;49.238;8.092;2023-09-07T08:26:52;11.93;;;4.88;;
68858;SDS011;55864;49.238;8.092;2023-09-07T08:28:52;8.50;;;4.20;;
68858;SDS011;55864;49.238;8.092;2023-09-07T08:30:53;10.15;;;4.70;;
68858;SDS011;55864;49.238;8.092;2023-09-07T08:32:53;8.57;;;4.00;;
68858;SDS011;55864;49.238;8.092;2023-09-07T08:34:54;8.00;;;4.47;;
68858;SDS011;55864;49.238;8.092;2023-09-07T08:36:55;8.15;;;4.10;;
68858;SDS011;55864;49.238;8.092;2023-09-07T08:38:56;7.38;;;4.30;;
68858;SDS011;55864;49.238;8.092;2023-09-07T08:41:00;8.35;;;4.53;;
68858;SDS011;55864;49.238;8.092;2023-09-07T08:43:02;8.95;;;4.55;;
68858;SDS011;55864;49.238;8.092;2023-09-07T08:45:04;8.15;;;4.43;;
68858;SDS011;55864;49.238;8.092;2023-09-07T08:47:07;8.35;;;4.38;;
68858;SDS011;55864;49.238;8.092;2023-09-07T08:49:09;11.18;;;4.70;;
68858;SDS011;55864;49.238;8.092;2023-09-07T08:51:10;7.70;;;4.68;;
68858;SDS011;55864;49.238;8.092;2023-09-07T08:53:12;10.33;;;4.47;;
68858;SDS011;55864;49.238;8.092;2023-09-07T08:55:14;9.73;;;4.95;;
68858;SDS011;55864;49.238;8.092;2023-09-07T08:57:15;9.85;;;4.80;;
68858;SDS011;55864;49.238;8.092;2023-09-07T08:59:17;7.97;;;4.32;;
68858;SDS011;55864;49.238;8.092;2023-09-07T09:01:18;11.63;;;4.47;;
68858;SDS011;55864;49.238;8.092;2023-09-07T09:03:18;9.77;;;4.60;;
68858;SDS011;55864;49.238;8.092;2023-09-07T09:05:19;8.70;;;4.05;;
68858;SDS011;55864;49.238;8.092;2023-09-07T09:07:20;11.23;;;4.88;;
68858;SDS011;55864;49.238;8.092;2023-09-07T09:09:24;8.77;;;4.45;;
68858;SDS011;55864;49.238;8.092;2023-09-07T09:11:26;7.65;;;4.55;;
68858;SDS011;55864;49.238;8.092;2023-09-07T09:13:27;7.63;;;4.00;;
68858;SDS011;55864;49.238;8.092;2023-09-07T09:15:28;12.25;;;4.85;;
68858;SDS011;55864;49.238;8.092;2023-09-07T09:17:28;10.60;;;4.50;;
68858;SDS011;55864;49.238;8.092;2023-09-07T09:19:32;7.15;;;4.18;;
68858;SDS011;55864;49.238;8.092;2023-09-07T09:21:33;8.43;;;4.32;;
68858;SDS011;55864;49.238;8.092;2023-09-07T09:23:34;9.55;;;5.28;;
68858;SDS011;55864;49.238;8.092;2023-09-07T09:25:36;10.07;;;5.10;;
68858;SDS011;55864;49.238;8.092;2023-09-07T09:27:37;9.32;;;4.75;;
68858;SDS011;55864;49.238;8.092;2023-09-07T09:29:38;9.10;;;4.25;;
68858;SDS011;55864;49.238;8.092;2023-09-07T09:31:38;11.32;;;4.72;;
68858;SDS011;55864;49.238;8.092;2023-09-07T09:33:40;8.07;;;4.40;;
68858;SDS011;55864;49.238;8.092;2023-09-07T09:35:42;9.40;;;4.65;;
68858;SDS011;55864;49.238;8.092;2023-09-07T09:37:43;8.07;;;4.40;;
68858;SDS011;55864;49.238;8.092;2023-09-07T09:39:47;10.57;;;4.70;;
68858;SDS011;55864;49.238;8.092;2023-09-07T09:41:49;9.05;;;4.50;;
68858;SDS011;55864;49.238;8.092;2023-09-07T09:43:51;8.90;;;5.03;;
68858;SDS011;55864;49.238;8.092;2023-09-07T09:45:53;11.15;;;4.53;;
68858;SDS011;55864;49.238;8.092;2023-09-07T09:47:55;9.15;;;4.35;;
68858;SDS011;55864;49.238;8.092;2023-09-07T09:49:55;7.68;;;4.22;;
68858;SDS011;55864;49.238;8.092;2023-09-07T09:51:57;9.63;;;4.47;;
68858;SDS011;55864;49.238;8.092;2023-09-07T09:53:58;11.35;;;4.43;;
68858;SDS011;55864;49.238;8.092;2023-09-07T09:56:00;8.53;;;4.40;;
68858;SDS011;55864;49.238;8.092;2023-09-07T09:58:01;7.85;;;4.50;;
68858;SDS011;55864;49.238;8.092;2023-09-07T10:00:04;9.38;;;5.10;;
68858;SDS011;55864;49.238;8.092;2023-09-07T10:02:12;8.88;;;4.60;;
68858;SDS011;55864;49.238;8.092;2023-09-07T10:04:13;7.32;;;4.28;;
68858;SDS011;55864;49.238;8.092;2023-09-07T10:06:19;9.57;;;4.43;;
68858;SDS011;55864;49.238;8.092;2023-09-07T10:08:23;9.23;;;4.22;;
68858;SDS011;55864;49.238;8.092;2023-09-07T10:10:23;7.53;;;4.53;;
68858;SDS011;55864;49.238;8.092;2023-09-07T10:12:27;9.50;;;4.90;;
68858;SDS011;55864;49.238;8.092;2023-09-07T10:14:37;8.75;;;4.63;;
68858;SDS011;55864;49.238;8.092;2023-09-07T10:16:42;12.85;;;4.97;;
68858;SDS011;55864;49.238;8.092;2023-09-07T10:18:43;8.77;;;4.68;;
68858;SDS011;55864;49.238;8.092;2023-09-07T10:20:48;8.55;;;4.45;;
68858;SDS011;55864;49.238;8.092;2023-09-07T10:22:50;10.07;;;4.57;;
68858;SDS011;55864;49.238;8.092;2023-09-07T10:25:01;8.15;;;4.40;;
68858;SDS011;55864;49.238;8.092;2023-09-07T10:27:02;8.85;;;4.28;;
68858;SDS011;55864;49.238;8.092;2023-09-07T10:29:04;8.70;;;4.30;;
68858;SDS011;55864;49.238;8.092;2023-09-07T10:31:05;9.02;;;4.80;;
68858;SDS011;55864;49.238;8.092;2023-09-07T10:33:08;11.10;;;4.38;;
68858;SDS011;55864;49.238;8.092;2023-09-07T10:35:19;8.82;;;4.82;;
68858;SDS011;55864;49.238;8.092;2023-09-07T10:37:20;10.00;;;4.70;;
68858;SDS011;55864;49.238;8.092;2023-09-07T10:39:30;8.95;;;4.50;;
68858;SDS011;55864;49.238;8.092;2023-09-07T10:41:39;7.78;;;4.40;;
68858;SDS011;55864;49.238;8.092;2023-09-07T10:43:46;8.10;;;3.95;;
68858;SDS011;55864;49.238;8.092;2023-09-07T10:45:47;8.75;;;3.83;;
68858;SDS011;55864;49.238;8.092;2023-09-07T10:47:48;8.38;;;4.20;;
68858;SDS011;55864;49.238;8.092;2023-09-07T10:49:50;7.53;;;3.80;;
68858;SDS011;55864;49.238;8.092;2023-09-07T10:51:50;6.78;;;3.83;;
68858;SDS011;55864;49.238;8.092;2023-09-07T10:53:51;8.55;;;4.00;;
68858;SDS011;55864;49.238;8.092;2023-09-07T10:55:52;9.13;;;4.25;;
68858;SDS011;55864;49.238;8.092;2023-09-07T10:57:52;7.72;;;4.55;;
68858;SDS011;55864;49.238;8.092;2023-09-07T10:59:53;10.60;;;5.13;;
68858;SDS011;55864;49.238;8.092;2023-09-07T11:01:53;16.92;;;5.47;;
68858;SDS011;55864;49.238;8.092;2023-09-07T11:03:54;59.88;;;8.65;;
68858;SDS011;55864;49.238;8.092;2023-09-07T11:05:56;10.90;;;4.63;;
68858;SDS011;55864;49.238;8.092;2023-09-07T11:08:00;13.32;;;4.60;;
68858;SDS011;55864;49.238;8.092;2023-09-07T11:10:01;10.43;;;4.45;;
68858;SDS011;55864;49.238;8.092;2023-09-07T11:12:05;9.77;;;4.35;;
68858;SDS011;55864;49.238;8.092;2023-09-07T11:14:06;12.02;;;4.68;;
68858;SDS011;55864;49.238;8.092;2023-09-07T11:16:07;10.48;;;4.40;;
68858;SDS011;55864;49.238;8.092;2023-09-07T11:18:08;8.55;;;4.55;;
68858;SDS011;55864;49.238;8.092;2023-09-07T11:20:09;8.27;;;4.50;;
68858;SDS011;55864;49.238;8.092;2023-09-07T11:22:11;13.38;;;4.65;;
68858;SDS011;55864;49.238;8.092;2023-09-07T11:24:12;10.73;;;4.60;;
68858;SDS011;55864;49.238;8.092;2023-09-07T11:26:13;9.50;;;4.22;;
68858;SDS011;55864;49.238;8.092;2023-09-07T11:28:15;12.43;;;4.45;;
68858;SDS011;55864;49.238;8.092;2023-09-07T11:30:16;9.68;;;4.22;;
68858;SDS011;55864;49.238;8.092;2023-09-07T11:32:17;8.35;;;4.43;;
68858;SDS011;55864;49.238;8.092;2023-09-07T11:34:17;9.13;;;4.75;;
68858;SDS011;55864;49.238;8.092;2023-09-07T11:36:18;7.97;;;4.38;;
68858;SDS011;55864;49.238;8.092;2023-09-07T11:38:20;8.82;;;4.85;;
68858;SDS011;55864;49.238;8.092;2023-09-07T11:40:20;6.87;;;3.87;;
68858;SDS011;55864;49.238;8.092;2023-09-07T11:42:21;8.38;;;3.90;;
68858;SDS011;55864;49.238;8.092;2023-09-07T11:44:22;6.70;;;3.85;;
68858;SDS011;55864;49.238;8.092;2023-09-07T11:46:22;7.93;;;4.28;;
68858;SDS011;55864;49.238;8.092;2023-09-07T11:48:23;7.90;;;3.80;;
68858;SDS011;55864;49.238;8.092;2023-09-07T11:50:23;7.57;;;4.15;;
68858;SDS011;55864;49.238;8.092;2023-09-07T11:52:24;7.30;;;4.07;;
68858;SDS011;55864;49.238;8.092;2023-09-07T11:54:26;11.55;;;4.25;;
68858;SDS011;55864;49.238;8.092;2023-09-07T11:56:26;7.10;;;4.30;;
68858;SDS011;55864;49.238;8.092;2023-09-07T11:58:27;7.45;;;4.40;;
68858;SDS011;55864;49.238;8.092;2023-09-07T12:00:28;11.57;;;4.40;;
68858;SDS011;55864;49.238;8.092;2023-09-07T12:02:28;8.80;;;3.90;;
68858;SDS011;55864;49.238;8.092;2023-09-07T12:04:29;7.15;;;3.97;;
68858;SDS011;55864;49.238;8.092;2023-09-07T12:06:29;8.32;;;4.00;;
68858;SDS011;55864;49.238;8.092;2023-09-07T12:08:30;9.07;;;4.10;;
68858;SDS011;55864;49.238;8.092;2023-09-07T12:10:32;9.02;;;4.25;;
68858;SDS011;55864;49.238;8.092;2023-09-07T12:12:32;7.95;;;4.28;;